Time;durP1;ratioP1;P1;durP2;ratioP2;P2;SDS_P1;SDS_P2;PMS_P1;PMS_P2;Temp;Humidity;BMP_temperature;BMP_pressure;BME280_temperature;BME280_humidity;BME280_pressure;Samples;Min_cycle;Max_cycle;Signal;HPM_P1;HPM_P2
2022/03/25 00:02:59;;;;;;;19.30;10.63;;;;;;;16.10;31.29;101074.15;2059863;95;30996;-80
2022/03/25 00:06:22;;;;;;;14.45;10.78;;;;;;;16.06;31.30;101073.23;2080009;95;25896;-81
2022/03/25 00:09:43;;;;;;;12.68;10.18;;;;;;;16.03;31.42;101075.42;2079182;95;25746;-81
2022/03/25 00:13:05;;;;;;;13.28;9.88;;;;;;;16.00;31.34;101073.19;2079937;95;31447;-81
2022/03/25 00:16:33;;;;;;;13.20;10.00;;;;;;;15.97;31.34;101074.02;2080950;94;25743;-80
2022/03/25 00:23:51;;;;;;;14.47;10.70;;;;;;;15.90;31.37;101073.50;1950792;100;25822;-80
2022/03/25 00:27:16;;;;;;;16.93;10.35;;;;;;;15.83;31.48;101065.08;1958849;99;25814;-80
2022/03/25 00:30:43;;;;;;;12.35;9.73;;;;;;;15.83;31.48;101065.08;1954650;100;25770;-80
2022/03/25 00:34:14;;;;;;;14.07;10.80;;;;;;;15.80;31.47;101068.55;1957410;99;25825;-80
2022/03/25 00:37:35;;;;;;;13.40;10.50;;;;;;;15.76;31.46;101066.74;1895493;100;25688;-80
2022/03/25 00:40:56;;;;;;;20.92;10.18;;;;;;;15.74;31.48;101063.63;1895695;103;31014;-80
2022/03/25 00:44:24;;;;;;;14.68;9.50;;;;;;;15.70;31.48;101056.58;1915212;101;26061;-80
2022/03/25 00:48:11;;;;;;;17.77;9.85;;;;;;;15.68;31.53;101056.97;1956940;98;25739;-81
2022/03/25 00:52:02;;;;;;;;;;;;;;;;;;;;;
2022/03/25 00:55:35;;;;;;;15.00;9.43;;;;;;;15.60;31.51;101058.16;1967010;99;26551;-79
2022/03/25 00:59:19;;;;;;;10.88;9.78;;;;;;;15.56;31.55;101050.66;1966839;98;26034;-77
2022/03/25 01:02:47;;;;;;;14.05;9.75;;;;;;;15.53;31.52;101055.00;1920631;101;25968;-78
2022/03/25 01:06:17;;;;;;;13.88;10.55;;;;;;;15.36;31.55;101027.17;1909138;101;25875;-79
2022/03/25 01:09:59;;;;;;;13.60;9.40;;;;;;;15.46;31.61;101042.20;1906863;102;25837;-79
2022/03/25 01:13:33;;;;;;;14.10;9.80;;;;;;;15.27;31.47;101015.20;1911645;100;25989;-80
2022/03/25 01:17:14;;;;;;;19.37;10.15;;;;;;;15.27;31.47;101015.20;1914089;101;25866;-80
2022/03/25 01:20:47;;;;;;;11.97;9.68;;;;;;;15.29;31.67;101034.07;1980335;97;25858;-79
2022/03/25 01:24:22;;;;;;;9.68;8.10;;;;;;;15.33;31.68;101051.64;1985057;97;25752;-79
2022/03/25 01:27:49;;;;;;;17.35;9.48;;;;;;;15.29;31.67;101042.39;2032585;95;26412;-78
2022/03/25 01:31:30;;;;;;;10.90;8.93;;;;;;;15.26;31.68;101044.53;2031110;95;25978;-78
2022/03/25 01:35:02;;;;;;;10.65;8.55;;;;;;;15.24;31.71;101047.55;2016843;95;26753;-79
2022/03/25 01:38:32;;;;;;;14.10;10.32;;;;;;;15.20;31.67;101045.75;1943319;97;25963;-79
2022/03/25 01:42:07;;;;;;;13.78;8.65;;;;;;;15.16;31.74;101040.00;1956192;97;25735;-79
2022/03/25 01:45:40;;;;;;;15.00;10.25;;;;;;;15.13;31.81;101048.27;1954662;98;25846;-80
2022/03/25 01:49:17;;;;;;;11.50;8.63;;;;;;;14.95;31.76;101036.61;1940853;97;25983;-80
2022/03/25 01:52:51;;;;;;;16.15;10.50;;;;;;;14.95;31.76;101036.61;2003642;97;25909;-81
2022/03/25 01:56:44;;;;;;;14.65;9.80;;;;;;;14.99;31.69;101051.98;2002067;96;26212;-79
2022/03/25 02:00:06;;;;;;;10.15;9.10;;;;;;;14.99;31.69;101051.98;2022274;95;25835;-80
2022/03/25 02:03:44;;;;;;;13.00;8.75;;;;;;;14.97;31.82;101052.38;2005297;96;25756;-79
2022/03/25 02:07:26;;;;;;;14.05;9.20;;;;;;;14.94;31.88;101051.02;1967482;96;25533;-80
2022/03/25 02:11:10;;;;;;;13.95;10.25;;;;;;;14.91;31.89;101050.95;1978638;99;25789;-79
2022/03/25 02:15:00;;;;;;;;;;;;;;;;;;;;;
2022/03/25 02:25:57;;;;;;;12.93;9.60;;;;;;;14.76;31.98;101060.34;1949794;98;26072;-80
2022/03/25 02:29:40;;;;;;;12.70;9.43;;;;;;;14.73;32.00;101056.36;1946014;98;25734;-80
2022/03/25 02:33:08;;;;;;;13.60;10.45;;;;;;;14.70;32.03;101054.11;1945576;99;26126;-80
2022/03/25 02:36:50;;;;;;;12.53;9.90;;;;;;;14.66;32.04;101054.92;1972122;98;26037;-80
2022/03/25 02:40:39;;;;;;;11.05;9.03;;;;;;;14.62;32.08;101057.48;1980214;98;26610;-78
2022/03/25 02:44:18;;;;;;;13.15;10.72;;;;;;;14.58;32.07;101058.30;1980050;98;25873;-80
2022/03/25 02:48:06;;;;;;;11.95;9.15;;;;;;;14.56;32.09;101055.17;1976228;98;25779;-79
2022/03/25 02:51:33;;;;;;;12.58;10.08;;;;;;;14.52;32.15;101057.30;1910448;102;25911;-79
2022/03/25 02:55:04;;;;;;;12.05;9.20;;;;;;;14.46;32.19;101063.27;1912032;101;25935;-80
2022/03/25 02:58:28;;;;;;;16.80;10.93;;;;;;;14.43;32.18;101067.58;1919969;101;25764;-79
2022/03/25 03:02:02;;;;;;;19.77;11.48;;;;;;;14.39;32.23;101069.27;1922016;100;25871;-79
2022/03/25 03:05:33;;;;;;;14.47;10.23;;;;;;;14.38;32.21;101076.25;1907648;101;26008;-78
2022/03/25 03:09:04;;;;;;;15.00;9.90;;;;;;;14.35;32.26;101077.50;1925997;100;25938;-78
2022/03/25 03:12:42;;;;;;;11.55;9.53;;;;;;;14.32;32.27;101084.43;1927814;101;25837;-79
2022/03/25 03:16:03;;;;;;;16.82;10.53;;;;;;;14.29;32.29;101077.37;1942157;100;25779;-79
2022/03/25 03:19:24;;;;;;;14.28;8.95;;;;;;;14.26;32.31;101079.94;1922680;101;25962;-77
2022/03/25 03:22:56;;;;;;;15.95;10.23;;;;;;;14.23;32.35;101084.23;1939348;100;26483;-79
2022/03/25 03:26:23;;;;;;;15.18;10.53;;;;;;;14.19;32.33;101085.92;1819848;105;25871;-79
2022/03/25 03:29:55;;;;;;;14.90;9.45;;;;;;;14.16;32.42;101085.42;1858719;104;25977;-78
2022/03/25 03:37:04;;;;;;;15.03;10.40;;;;;;;14.11;32.53;101087.52;1846333;104;25898;-80
2022/03/25 03:40:46;;;;;;;19.20;11.28;;;;;;;14.08;32.54;101092.69;1860105;104;25802;-80
2022/03/25 03:44:10;;;;;;;11.70;9.73;;;;;;;14.04;32.57;101089.12;1862064;104;25813;-80
2022/03/25 03:47:52;;;;;;;14.40;9.73;;;;;;;14.01;32.61;101085.13;1841180;104;25963;-80
2022/03/25 03:51:19;;;;;;;19.40;11.33;;;;;;;13.99;32.66;101087.25;1815087;107;27323;-79
2022/03/25 03:58:43;;;;;;;14.50;9.95;;;;;;;13.92;32.72;101093.67;1875597;103;25979;-80
2022/03/25 04:02:18;;;;;;;17.32;10.43;;;;;;;13.87;32.71;101087.86;1903873;100;25740;-81
2022/03/25 04:06:05;;;;;;;12.30;9.63;;;;;;;13.83;32.76;101089.53;1921115;101;25957;-79
2022/03/25 04:09:34;;;;;;;13.90;9.88;;;;;;;13.81;32.78;101091.25;1877798;103;25697;-79
2022/03/25 04:13:11;;;;;;;15.70;9.78;;;;;;;13.79;32.81;101089.44;1934107;101;25886;-77
2022/03/25 04:16:48;;;;;;;13.00;10.38;;;;;;;13.77;32.82;101096.38;1926083;101;26116;-77
2022/03/25 04:20:18;;;;;;;13.55;10.08;;;;;;;13.73;32.84;101089.30;1936606;100;25731;-78
2022/03/25 04:23:52;;;;;;;19.10;10.25;;;;;;;13.73;32.83;101095.85;2014402;96;26356;-79
2022/03/25 04:27:17;;;;;;;15.38;10.63;;;;;;;13.69;32.86;101094.47;2025498;96;25810;-78
2022/03/25 04:30:50;;;;;;;12.13;10.50;;;;;;;13.68;32.88;101101.00;2028383;96;25891;-78
2022/03/25 04:34:27;;;;;;;15.65;9.68;;;;;;;13.65;32.89;101099.19;2015597;96;25811;-78
2022/03/25 04:38:03;;;;;;;12.05;9.10;;;;;;;13.64;32.91;101097.86;2029032;96;25819;-78
2022/03/25 04:41:31;;;;;;;11.63;9.43;;;;;;;13.63;32.93;101098.26;2015968;96;25752;-79
2022/03/25 04:45:22;;;;;;;;;;;;;;;;;;;;;
2022/03/25 04:48:41;;;;;;;14.47;10.10;;;;;;;13.61;32.94;101099.98;2010677;96;25485;-79
2022/03/25 04:52:27;;;;;;;15.83;9.75;;;;;;;13.61;32.93;101101.72;2024882;97;25835;-80
2022/03/25 04:56:04;;;;;;;14.33;9.13;;;;;;;13.62;32.93;101104.78;2035794;96;25802;-79
2022/03/25 04:59:12;;;;;;;15.32;9.73;;;;;;;13.62;32.93;101099.55;2047787;94;25881;-78
2022/03/25 05:02:34;;;;;;;13.35;9.78;;;;;;;13.62;32.93;101100.43;2048898;96;30829;-78
2022/03/25 05:06:05;;;;;;;12.40;10.10;;;;;;;13.64;32.92;101103.10;2052242;96;25782;-78
2022/03/25 05:09:28;;;;;;;11.78;9.43;;;;;;;13.65;32.94;101102.23;2029941;96;26059;-78
2022/03/25 05:13:02;;;;;;;16.42;10.60;;;;;;;13.65;32.94;101102.23;2025565;95;25907;-78
2022/03/25 05:16:27;;;;;;;12.20;9.05;;;;;;;13.68;32.96;101108.86;1982523;97;25784;-78
2022/03/25 05:19:58;;;;;;;13.75;9.60;;;;;;;13.71;32.97;101112.87;1990259;97;26502;-77
2022/03/25 05:23:23;;;;;;;12.58;9.78;;;;;;;13.74;32.94;101115.56;2041438;94;25865;-78
2022/03/25 05:26:44;;;;;;;14.60;9.90;;;;;;;13.77;33.00;101114.72;2072351;94;30950;-78
2022/03/25 05:30:22;;;;;;;11.93;9.23;;;;;;;13.80;32.99;101110.42;2077605;93;27007;-78
2022/03/25 05:33:46;;;;;;;15.35;9.30;;;;;;;13.84;32.98;101111.41;2109058;92;25697;-78
2022/03/25 05:37:15;;;;;;;15.48;9.45;;;;;;;13.88;33.01;101121.98;2105063;92;26512;-79
2022/03/25 05:41:01;;;;;;;10.53;8.88;;;;;;;13.92;33.02;101118.57;2114114;92;25785;-77
2022/03/25 05:44:44;;;;;;;16.90;9.25;;;;;;;13.96;33.04;101123.45;2100163;92;25966;-78
2022/03/25 05:48:17;;;;;;;12.68;8.88;;;;;;;14.01;33.05;101122.26;2113931;92;25940;-79
2022/03/25 05:52:06;;;;;;;12.37;9.80;;;;;;;14.05;33.08;101119.72;2108763;91;26116;-79
2022/03/25 06:00:11;;;;;;;13.78;8.85;;;;;;;14.14;33.08;101132.13;2136968;90;25693;-78
2022/03/25 06:03:44;;;;;;;19.20;9.55;;;;;;;14.19;33.11;101123.95;2065269;94;26238;-78
2022/03/25 06:07:13;;;;;;;16.00;9.70;;;;;;;14.25;33.12;101137.19;2072772;93;25810;-80
2022/03/25 06:10:56;;;;;;;11.18;9.13;;;;;;;14.30;33.09;101130.28;2102146;91;25696;-78
2022/03/25 06:14:22;;;;;;;16.17;11.03;;;;;;;14.37;33.13;101128.23;2058537;94;26062;-79
2022/03/25 06:17:53;;;;;;;18.40;10.80;;;;;;;14.44;33.17;101120.49;2035696;94;25914;-79
2022/03/25 06:21:34;;;;;;;;;;;;;;;;;;;;;
2022/03/25 06:24:50;;;;;;;14.33;10.30;;;;;;;14.57;33.13;101122.54;1990731;97;25896;-80
2022/03/25 06:28:26;;;;;;;13.13;9.60;;;;;;;14.63;33.05;101123.97;1991620;96;25967;-80
2022/03/25 06:31:49;;;;;;;17.65;10.28;;;;;;;14.79;32.96;101122.52;2023684;95;25854;-79
2022/03/25 06:35:10;;;;;;;19.48;9.98;;;;;;;14.79;32.96;101122.52;2061969;95;25831;-79
2022/03/25 06:38:53;;;;;;;20.55;10.98;;;;;;;14.74;32.89;101102.73;2034307;95;30956;-78
2022/03/25 06:42:37;;;;;;;19.65;10.28;;;;;;;14.95;32.85;101129.83;2010587;97;26945;-78
2022/03/25 06:46:18;;;;;;;16.12;9.50;;;;;;;14.92;32.79;101106.14;2011137;97;25846;-78
2022/03/25 06:49:46;;;;;;;14.87;9.40;;;;;;;15.15;32.68;101137.14;2065350;93;25946;-77
2022/03/25 06:53:10;;;;;;;16.77;9.93;;;;;;;15.21;32.58;101112.30;2068294;95;25786;-79
2022/03/25 07:00:25;;;;;;;15.20;9.27;;;;;;;15.42;32.60;101132.33;1950627;99;25945;-77
2022/03/25 07:03:56;;;;;;;15.18;10.08;;;;;;;15.53;32.49;101134.72;1944993;100;25839;-79
2022/03/25 07:07:25;;;;;;;14.18;10.03;;;;;;;15.62;32.46;101112.05;1951066;99;25859;-79
2022/03/25 07:10:51;;;;;;;9.18;7.72;;;;;;;15.62;32.46;101112.05;1949572;100;26098;-77
2022/03/25 07:14:14;;;;;;;14.43;6.58;;;;;;;15.89;33.59;101145.34;1948439;100;25805;-76
2022/03/25 07:17:47;;;;;;;6.67;5.80;;;;;;;16.11;37.19;101145.21;2038548;94;26004;-76
2022/03/25 07:25:17;;;;;;;12.93;8.27;;;;;;;17.35;38.06;101147.00;1938769;99;25819;-75
2022/03/25 07:28:47;;;;;;;11.35;7.03;;;;;;;21.05;35.81;101155.66;1964047;99;26191;-77
2022/03/25 07:32:13;;;;;;;30.57;15.03;;;;;;;24.30;33.30;101161.91;1953567;98;25761;-77
2022/03/25 07:35:46;;;;;;;24.72;15.68;;;;;;;26.45;28.09;101176.60;1940495;98;25694;-77
2022/03/25 07:39:13;;;;;;;31.05;17.75;;;;;;;27.26;24.46;101178.13;1913886;100;25856;-77
2022/03/25 07:42:48;;;;;;;36.85;17.02;;;;;;;28.21;22.41;101186.45;1926664;101;25866;-76
2022/03/25 07:46:28;;;;;;;27.55;15.98;;;;;;;29.33;20.67;101191.50;1900347;103;26513;-77
2022/03/25 07:50:00;;;;;;;32.63;16.90;;;;;;;30.04;19.43;101189.36;1841384;106;25952;-76
2022/03/25 07:53:35;;;;;;;24.37;16.00;;;;;;;31.00;18.83;101191.22;1840940;106;26253;-76
2022/03/25 07:57:04;;;;;;;37.23;15.65;;;;;;;31.73;17.62;101189.37;2071044;92;25932;-77
2022/03/25 08:00:28;;;;;;;25.35;16.70;;;;;;;32.52;17.20;101195.05;2080120;93;26119;-78
2022/03/25 08:04:01;;;;;;;25.37;14.47;;;;;;;33.31;15.98;101192.83;2077280;93;26476;-78
2022/03/25 08:07:26;;;;;;;25.75;16.00;;;;;;;33.75;15.65;101196.99;2047914;94;25799;-77
2022/03/25 08:11:04;;;;;;;28.90;16.45;;;;;;;34.50;15.05;101211.77;2032302;95;25786;-77
2022/03/25 08:14:42;;;;;;;33.85;18.73;;;;;;;34.98;14.30;101210.94;2058285;93;25810;-77
2022/03/25 08:18:13;;;;;;;26.05;15.48;;;;;;;35.01;13.70;101215.70;1963735;99;26594;-76
2022/03/25 08:21:43;;;;;;;29.57;15.38;;;;;;;35.25;13.52;101207.78;1965207;100;25773;-77
2022/03/25 08:28:49;;;;;;;24.50;14.75;;;;;;;35.87;13.02;101209.90;1967397;99;25994;-78
2022/03/25 08:32:31;;;;;;;28.20;14.40;;;;;;;36.24;12.82;101205.12;1960522;99;25849;-77
2022/03/25 08:36:24;;;;;;;18.17;13.88;;;;;;;36.57;12.21;101217.66;1959015;97;25770;-77
2022/03/25 08:39:55;;;;;;;25.95;14.65;;;;;;;36.52;12.00;101214.42;1926236;100;25771;-78
2022/03/25 08:43:24;;;;;;;18.82;13.58;;;;;;;36.37;11.83;101212.77;1954650;97;26039;-77
2022/03/25 08:46:45;;;;;;;17.42;13.28;;;;;;;36.29;11.95;101209.25;2013163;96;26380;-78
2022/03/25 08:50:12;;;;;;;19.12;13.90;;;;;;;36.52;11.93;101208.99;2026110;96;25896;-77
2022/03/25 08:53:59;;;;;;;28.55;13.08;;;;;;;36.94;11.90;101212.23;1993965;98;25828;-78
2022/03/25 08:57:24;;;;;;;21.93;12.20;;;;;;;37.37;11.84;101213.12;1994863;98;25888;-78
2022/03/25 09:00:56;;;;;;;15.25;12.75;;;;;;;37.65;11.49;101214.61;1984177;98;26064;-78
2022/03/25 09:04:24;;;;;;;19.10;12.68;;;;;;;37.46;11.04;101203.41;1983529;98;25829;-78
2022/03/25 09:08:05;;;;;;;17.55;12.63;;;;;;;37.27;11.02;101206.64;1988161;98;25746;-78
2022/03/25 09:11:36;;;;;;;17.00;12.82;;;;;;;37.11;10.95;101205.08;1975686;98;25993;-81
2022/03/25 09:15:15;;;;;;;16.10;11.90;;;;;;;36.93;10.94;101198.28;2019212;95;25844;-80
2022/03/25 09:18:56;;;;;;;14.73;12.00;;;;;;;37.11;11.03;101200.99;2008874;95;25828;-78
2022/03/25 09:22:22;;;;;;;19.30;13.18;;;;;;;36.58;10.67;101199.50;1995741;97;26008;-80
2022/03/25 09:25:49;;;;;;;15.88;12.15;;;;;;;36.37;10.84;101191.91;1993697;97;25771;-80
2022/03/25 09:29:16;;;;;;;14.75;11.15;;;;;;;36.33;10.95;101189.53;2003726;97;25819;-79
2022/03/25 09:32:58;;;;;;;15.72;11.57;;;;;;;36.40;11.12;101184.89;1971776;97;26260;-91
2022/03/25 09:36:17;;;;;;;14.43;10.70;;;;;;;36.48;10.91;101188.41;2066318;91;25727;-76
2022/03/25 09:39:39;;;;;;;18.32;12.50;;;;;;;36.75;11.28;101186.90;2092827;91;25755;-77
2022/03/25 09:43:00;;;;;;;19.90;11.57;;;;;;;36.92;10.85;101186.14;2086436;91;25956;-76
2022/03/25 09:46:24;;;;;;;18.67;12.60;;;;;;;36.95;10.85;101177.77;2111775;91;25811;-77
2022/03/25 09:49:47;;;;;;;12.95;11.57;;;;;;;36.90;10.60;101175.41;2125528;89;26548;-77
2022/03/25 09:53:08;;;;;;;21.00;12.55;;;;;;;36.43;11.39;101149.86;2165766;88;25783;-77
2022/03/25 09:56:30;;;;;;;17.20;13.30;;;;;;;36.76;11.05;101176.44;2175062;88;25709;-75
2022/03/25 09:59:51;;;;;;;15.93;11.68;;;;;;;36.76;11.05;101176.44;2160550;88;25767;-81
2022/03/25 10:03:12;;;;;;;23.62;12.50;;;;;;;36.73;10.29;101179.37;2183760;88;25947;-78
2022/03/25 10:06:58;;;;;;;17.23;10.48;;;;;;;35.78;11.02;101166.29;2170467;88;25749;-77
2022/03/25 10:10:43;;;;;;;14.50;12.03;;;;;;;36.00;11.59;101167.84;2162501;88;25724;-79
2022/03/25 10:14:19;;;;;;;16.23;12.03;;;;;;;36.31;11.31;101161.61;2154735;90;25797;-79
2022/03/25 10:18:04;;;;;;;22.07;12.00;;;;;;;36.17;11.36;101136.32;2150401;88;26511;-79
2022/03/25 10:21:30;;;;;;;21.12;13.78;;;;;;;35.91;10.83;101157.63;2219083;87;25939;-78
2022/03/25 10:25:00;;;;;;;17.15;12.90;;;;;;;35.35;10.82;101163.30;2203457;87;25853;-82
2022/03/25 10:28:44;;;;;;;17.92;13.35;;;;;;;34.07;10.89;101154.44;2204175;88;25752;-78
2022/03/25 10:32:23;;;;;;;21.80;13.10;;;;;;;33.61;11.74;101155.89;2221219;87;25692;-80
2022/03/25 10:36:01;;;;;;;21.30;12.98;;;;;;;33.70;11.99;101142.78;2216584;87;25768;-78
2022/03/25 10:39:29;;;;;;;16.65;12.07;;;;;;;33.77;11.86;101139.59;2190211;86;25722;-78
2022/03/25 10:43:09;;;;;;;15.25;11.03;;;;;;;34.06;12.18;101146.44;2226096;86;25802;-78
2022/03/25 10:46:48;;;;;;;23.07;14.07;;;;;;;34.49;12.25;101144.57;2206757;87;25282;-78
2022/03/25 10:50:19;;;;;;;14.18;11.95;;;;;;;34.79;11.59;101138.98;2170692;88;25664;-78
2022/03/25 10:53:47;;;;;;;15.15;11.22;;;;;;;33.99;11.94;101135.09;2165032;88;25663;-80
2022/03/25 10:57:07;;;;;;;20.85;13.60;;;;;;;34.15;11.93;101134.14;2188970;87;25716;-80
2022/03/25 11:00:27;;;;;;;18.20;13.62;;;;;;;34.15;11.83;101131.44;2226423;86;25816;-78
2022/03/25 11:04:07;;;;;;;20.50;12.70;;;;;;;33.98;11.86;101123.86;2250228;86;25761;-79
2022/03/25 11:07:35;;;;;;;18.60;13.22;;;;;;;34.06;12.23;101123.44;2229950;87;26095;-78
2022/03/25 11:10:58;;;;;;;22.60;13.18;;;;;;;34.24;11.99;101120.03;2250782;86;26001;-77
2022/03/25 11:14:27;;;;;;;22.77;13.40;;;;;;;33.93;11.98;101120.59;2235434;86;25773;-76
2022/03/25 11:17:50;;;;;;;22.37;13.45;;;;;;;33.77;11.64;101117.96;2238519;87;25833;-75
2022/03/25 11:21:16;;;;;;;23.32;12.98;;;;;;;33.13;12.08;101102.44;2234145;86;25719;-75
2022/03/25 11:24:42;;;;;;;21.05;11.43;;;;;;;33.35;12.31;101106.09;2228103;87;25639;-75
2022/03/25 11:28:08;;;;;;;15.05;12.73;;;;;;;33.39;12.42;101097.31;2204722;87;25666;-77
2022/03/25 11:31:30;;;;;;;17.75;13.32;;;;;;;33.28;11.85;101097.09;2194697;87;25600;-76
2022/03/25 11:35:01;;;;;;;15.95;12.65;;;;;;;32.89;12.44;101091.22;2189718;87;25714;-76
2022/03/25 11:38:23;;;;;;;16.30;13.62;;;;;;;33.00;12.25;101087.91;2199123;88;26132;-76
2022/03/25 11:41:44;;;;;;;19.67;13.62;;;;;;;32.73;12.42;101086.31;2201207;88;25701;-75
2022/03/25 11:45:35;;;;;;;19.17;15.08;;;;;;;33.08;12.53;101087.48;2201249;88;25723;-74
2022/03/25 11:49:11;;;;;;;19.02;14.07;;;;;;;33.23;12.26;101079.79;2204429;87;25798;-75
2022/03/25 11:52:33;;;;;;;14.23;11.57;;;;;;;33.06;12.16;101079.45;2185999;87;25746;-73
2022/03/25 11:56:11;;;;;;;18.30;11.93;;;;;;;33.17;12.16;101078.80;2208360;87;25601;-76
2022/03/25 11:59:52;;;;;;;14.43;11.30;;;;;;;33.02;12.36;101074.33;2235364;87;25702;-74
2022/03/25 12:03:15;;;;;;;20.15;13.32;;;;;;;33.16;12.38;101070.31;2204086;86;25926;-77
2022/03/25 12:07:03;;;;;;;17.20;12.98;;;;;;;33.27;12.08;101075.06;2210964;87;25806;-72
2022/03/25 12:10:44;;;;;;;21.07;13.70;;;;;;;32.90;11.81;101069.12;2216802;87;25657;-77
2022/03/25 12:14:05;;;;;;;18.52;12.65;;;;;;;32.81;12.24;101054.35;2216350;86;28218;-77
2022/03/25 12:17:32;;;;;;;18.32;12.30;;;;;;;32.98;12.03;101052.03;2221057;86;25876;-77
2022/03/25 12:20:53;;;;;;;18.35;12.55;;;;;;;32.94;12.20;101053.16;2221202;87;26348;-76
2022/03/25 12:24:17;;;;;;;21.17;13.43;;;;;;;33.00;12.18;101061.39;2219083;87;25786;-76
2022/03/25 12:27:39;;;;;;;24.07;12.53;;;;;;;32.78;11.99;101023.95;2221170;86;25348;-75
2022/03/25 12:31:04;;;;;;;23.25;11.97;;;;;;;32.81;11.75;101046.25;2200149;87;25905;-77
2022/03/25 12:34:56;;;;;;;12.05;10.72;;;;;;;32.59;11.86;101036.30;2204143;86;26389;-77
2022/03/25 12:38:23;;;;;;;17.20;10.80;;;;;;;32.64;12.06;101039.14;2199919;88;25899;-76
2022/03/25 12:41:51;;;;;;;21.48;10.23;;;;;;;31.83;11.96;101035.58;2196878;87;26110;-77
2022/03/25 12:45:12;;;;;;;20.35;11.18;;;;;;;32.00;12.25;101022.55;2192066;87;25655;-77
2022/03/25 12:48:39;;;;;;;19.12;10.60;;;;;;;32.10;12.24;101016.16;2192413;87;25878;-75
2022/03/25 12:52:04;;;;;;;19.40;9.85;;;;;;;32.18;12.29;101021.98;2212153;88;25667;-74
2022/03/25 12:55:28;;;;;;;20.40;9.33;;;;;;;32.30;12.22;101026.69;2218431;87;25998;-73
2022/03/25 12:58:52;;;;;;;23.00;9.33;;;;;;;32.43;12.21;101016.97;2173932;89;25778;-76
2022/03/25 13:02:13;;;;;;;22.65;10.13;;;;;;;32.58;12.08;101017.89;2224620;87;26357;-78
2022/03/25 13:05:36;;;;;;;15.53;8.45;;;;;;;32.77;11.97;101017.69;2223371;86;26366;-70
2022/03/25 13:09:02;;;;;;;14.43;9.48;;;;;;;32.89;11.86;101005.28;2226468;87;26551;-77
2022/03/25 13:12:30;;;;;;;15.23;8.85;;;;;;;32.68;11.85;101006.08;2217027;86;26967;-70
2022/03/25 13:15:51;;;;;;;20.10;10.30;;;;;;;32.69;11.98;101009.16;2232712;87;25834;-71
2022/03/25 13:19:12;;;;;;;20.17;9.58;;;;;;;32.61;11.83;101006.92;2212078;87;25743;-73
2022/03/25 13:22:33;;;;;;;16.17;7.97;;;;;;;32.61;11.84;101000.66;2219749;87;25686;-72
2022/03/25 13:26:07;;;;;;;19.45;8.53;;;;;;;32.54;11.69;101003.33;2225248;87;25721;-71
2022/03/25 13:29:30;;;;;;;15.85;8.08;;;;;;;32.34;11.81;100999.91;2213037;87;25720;-73
2022/03/25 13:33:02;;;;;;;12.98;7.50;;;;;;;32.29;11.91;100993.03;2229550;86;25695;-72
2022/03/25 13:36:35;;;;;;;9.40;8.13;;;;;;;32.33;11.92;100999.53;2227649;86;25757;-71
2022/03/25 13:39:56;;;;;;;10.40;6.72;;;;;;;32.08;11.64;101000.53;2206425;87;25876;-72
2022/03/25 13:43:21;;;;;;;12.80;7.58;;;;;;;32.00;11.91;100990.19;2196643;88;25967;-72
2022/03/25 13:46:42;;;;;;;17.62;7.00;;;;;;;32.03;11.93;100995.86;2195514;87;25873;-73
2022/03/25 13:50:22;;;;;;;15.95;7.85;;;;;;;31.75;11.80;100984.75;2219019;87;25675;-72
2022/03/25 13:53:40;;;;;;;12.03;7.72;;;;;;;31.70;11.85;100980.59;2230922;87;26389;-72
2022/03/25 13:57:04;;;;;;;11.65;6.78;;;;;;;31.77;11.73;100973.03;2212441;87;25943;-73
2022/03/25 14:00:35;;;;;;;11.78;6.50;;;;;;;31.72;11.62;100972.78;2242513;86;25835;-72
2022/03/25 14:04:13;;;;;;;12.90;6.28;;;;;;;31.68;11.52;100979.80;2252077;87;25791;-72
2022/03/25 14:07:37;;;;;;;11.43;6.72;;;;;;;31.48;11.50;100980.40;2225207;87;26496;-73
2022/03/25 14:10:59;;;;;;;9.53;7.17;;;;;;;31.27;11.58;100969.41;2193544;87;25723;-72
2022/03/25 14:14:34;;;;;;;10.93;6.75;;;;;;;31.17;11.63;100973.55;2232515;87;25732;-72
2022/03/25 14:17:56;;;;;;;10.40;7.22;;;;;;;31.43;11.69;100972.19;2247419;87;25861;-73
2022/03/25 14:21:31;;;;;;;15.30;7.08;;;;;;;31.29;11.69;100961.64;2239071;87;26398;-72
2022/03/25 14:24:52;;;;;;;9.88;7.42;;;;;;;31.06;11.66;100949.88;2225658;87;25975;-72
2022/03/25 14:28:18;;;;;;;13.30;6.75;;;;;;;30.91;11.70;100946.63;2214847;87;26000;-71
2022/03/25 14:31:43;;;;;;;10.72;7.15;;;;;;;30.70;11.88;100941.86;2183668;87;25773;-71
2022/03/25 14:35:05;;;;;;;15.75;9.05;;;;;;;30.33;12.05;100941.90;2196556;87;25670;-72
2022/03/25 14:38:26;;;;;;;8.75;6.72;;;;;;;30.17;12.36;100934.16;2224258;87;26459;-71
2022/03/25 14:41:46;;;;;;;13.53;7.35;;;;;;;29.98;12.18;100937.37;2215029;87;25662;-71
2022/03/25 14:45:08;;;;;;;18.37;8.45;;;;;;;29.36;12.26;100942.91;2187815;87;25725;-73
2022/03/25 14:48:29;;;;;;;14.10;8.38;;;;;;;28.76;12.70;100939.77;2203407;87;25904;-71
2022/03/25 14:51:50;;;;;;;14.38;7.62;;;;;;;28.11;12.71;100923.63;2207394;87;25765;-72
2022/03/25 14:55:18;;;;;;;14.68;7.95;;;;;;;27.54;12.97;100920.51;2204402;86;25671;-71
2022/03/25 14:58:35;;;;;;;14.00;6.58;;;;;;;27.12;13.07;100916.25;2209002;87;25871;-70
2022/03/25 15:01:56;;;;;;;12.80;7.67;;;;;;;26.64;13.35;100917.53;2222046;86;25747;-72
2022/03/25 15:05:17;;;;;;;13.40;7.75;;;;;;;26.31;13.65;100911.02;2232643;86;25738;-71
2022/03/25 15:08:38;;;;;;;12.35;8.25;;;;;;;26.04;13.72;100911.47;2227669;87;27390;-71
2022/03/25 15:12:00;;;;;;;17.40;7.80;;;;;;;25.55;13.87;100914.27;2216615;87;25744;-71
2022/03/25 15:15:21;;;;;;;9.10;6.58;;;;;;;25.22;14.16;100909.48;2215167;85;25245;-72
2022/03/25 15:18:45;;;;;;;12.03;8.08;;;;;;;24.99;14.18;100906.96;2214921;87;25696;-72
2022/03/25 15:22:09;;;;;;;15.80;7.50;;;;;;;24.72;14.40;100902.79;2219651;87;25828;-72
2022/03/25 15:25:30;;;;;;;16.52;6.90;;;;;;;24.50;14.44;100891.83;2213284;87;25783;-71
2022/03/25 15:28:50;;;;;;;10.23;7.15;;;;;;;24.26;14.58;100892.39;2195111;88;25703;-71
2022/03/25 15:35:50;;;;;;;15.43;7.75;;;;;;;23.82;15.06;100899.66;2229796;87;25646;-71
2022/03/25 15:39:11;;;;;;;16.97;7.80;;;;;;;23.53;15.30;100900.30;2231226;86;25686;-71
2022/03/25 15:42:35;;;;;;;17.15;7.90;;;;;;;23.32;15.42;100895.85;2238376;86;25724;-71
2022/03/25 15:46:03;;;;;;;16.23;8.03;;;;;;;23.11;15.63;100902.92;2190758;88;25743;-73
2022/03/25 15:49:23;;;;;;;15.38;8.63;;;;;;;22.90;15.82;100907.30;2222289;87;25838;-74
2022/03/25 15:52:44;;;;;;;14.98;8.90;;;;;;;22.67;15.91;100897.09;2217154;87;25793;-74
2022/03/25 15:56:05;;;;;;;17.10;8.43;;;;;;;22.44;16.05;100896.16;2222123;87;25645;-73
2022/03/25 15:59:27;;;;;;;18.70;9.48;;;;;;;22.26;16.18;100894.69;2195366;87;25677;-73
2022/03/25 16:02:48;;;;;;;14.43;8.80;;;;;;;22.13;16.28;100897.50;2175232;87;25910;-72
2022/03/25 16:06:09;;;;;;;14.53;8.60;;;;;;;21.93;16.42;100896.92;2168832;88;25456;-74
2022/03/25 16:09:32;;;;;;;18.27;9.48;;;;;;;21.74;16.64;100904.76;2185942;87;25616;-74
2022/03/25 16:12:54;;;;;;;17.75;8.43;;;;;;;21.53;16.76;100901.92;2204508;88;25587;-75
2022/03/25 16:16:15;;;;;;;14.43;9.30;;;;;;;21.35;16.91;100898.61;2170575;88;25671;-74
2022/03/25 16:19:40;;;;;;;21.05;9.23;;;;;;;21.07;17.25;100891.41;2196269;87;25784;-75
2022/03/25 16:23:02;;;;;;;19.62;10.63;;;;;;;20.91;17.50;100893.80;2198993;87;25808;-74
2022/03/25 16:26:27;;;;;;;30.10;10.35;;;;;;;20.63;17.66;100890.11;2202488;87;25858;-75
2022/03/25 16:29:48;;;;;;;18.55;9.80;;;;;;;20.46;18.03;100884.94;2175508;88;25667;-71
2022/03/25 16:33:12;;;;;;;18.70;11.88;;;;;;;20.39;18.14;100884.56;2195840;87;26023;-72
2022/03/25 16:36:36;;;;;;;25.15;16.65;;;;;;;20.30;18.40;100888.60;2164472;87;25584;-73
2022/03/25 16:40:01;;;;;;;39.15;16.27;;;;;;;20.23;18.97;100889.09;2195672;88;25822;-71
2022/03/25 16:43:23;;;;;;;37.15;17.52;;;;;;;20.17;19.33;100887.81;2204284;87;25789;-72